sensor_id;sensor_type;location;lat;lon;timestamp;temperature;humidity
11908;DHT22;6014;47.690;9.130;2023-02-01T00:01:44;4.50;99.90
11908;DHT22;6014;47.690;9.130;2023-02-01T00:04:19;4.60;99.90
11908;DHT22;6014;47.690;9.130;2023-02-01T00:06:47;4.60;99.90
11908;DHT22;6014;47.690;9.130;2023-02-01T00:09:16;4.50;99.90
11908;DHT22;6014;47.690;9.130;2023-02-01T00:11:44;4.50;99.90
11908;DHT22;6014;47.690;9.130;2023-02-01T00:14:13;4.60;99.90
11908;DHT22;6014;47.690;9.130;2023-02-01T00:16:41;4.40;99.90
11908;DHT22;6014;47.690;9.130;2023-02-01T00:19:12;4.40;99.90
11908;DHT22;6014;47.690;9.130;2023-02-01T00:21:44;4.40;99.90
11908;DHT22;6014;47.690;9.130;2023-02-01T00:24:36;4.40;99.90
11908;DHT22;6014;47.690;9.130;2023-02-01T00:27:04;4.30;99.90
11908;DHT22;6014;47.690;9.130;2023-02-01T00:29:32;4.40;99.90
11908;DHT22;6014;47.690;9.130;2023-02-01T00:32:00;4.50;99.90
11908;DHT22;6014;47.690;9.130;2023-02-01T00:34:28;4.50;99.90
11908;DHT22;6014;47.690;9.130;2023-02-01T00:36:56;4.50;99.90
11908;DHT22;6014;47.690;9.130;2023-02-01T00:39:30;4.50;99.90
11908;DHT22;6014;47.690;9.130;2023-02-01T00:41:59;4.60;99.90
11908;DHT22;6014;47.690;9.130;2023-02-01T00:44:28;4.50;99.90
11908;DHT22;6014;47.690;9.130;2023-02-01T00:47:00;4.50;99.90
11908;DHT22;6014;47.690;9.130;2023-02-01T00:49:28;4.50;99.90
11908;DHT22;6014;47.690;9.130;2023-02-01T00:51:56;4.60;99.90
11908;DHT22;6014;47.690;9.130;2023-02-01T00:54:24;4.60;99.90
11908;DHT22;6014;47.690;9.130;2023-02-01T00:56:53;4.50;99.90
11908;DHT22;6014;47.690;9.130;2023-02-01T00:59:22;4.60;99.90
11908;DHT22;6014;47.690;9.130;2023-02-01T01:01:50;4.60;99.90
11908;DHT22;6014;47.690;9.130;2023-02-01T01:04:18;4.70;99.90
11908;DHT22;6014;47.690;9.130;2023-02-01T01:06:46;4.70;99.90
11908;DHT22;6014;47.690;9.130;2023-02-01T01:09:14;4.60;99.90
11908;DHT22;6014;47.690;9.130;2023-02-01T01:11:42;4.70;99.90
11908;DHT22;6014;47.690;9.130;2023-02-01T01:14:10;4.60;99.90
11908;DHT22;6014;47.690;9.130;2023-02-01T01:16:40;4.60;99.90
11908;DHT22;6014;47.690;9.130;2023-02-01T01:19:08;4.60;99.90
11908;DHT22;6014;47.690;9.130;2023-02-01T01:21:36;4.70;99.90
11908;DHT22;6014;47.690;9.130;2023-02-01T01:24:04;4.60;99.90
11908;DHT22;6014;47.690;9.130;2023-02-01T01:26:33;4.70;99.90
11908;DHT22;6014;47.690;9.130;2023-02-01T01:29:01;4.70;99.90
11908;DHT22;6014;47.690;9.130;2023-02-01T01:31:29;4.70;99.90
11908;DHT22;6014;47.690;9.130;2023-02-01T01:33:59;4.70;99.90
11908;DHT22;6014;47.690;9.130;2023-02-01T01:36:28;4.70;99.90
11908;DHT22;6014;47.690;9.130;2023-02-01T01:38:56;4.70;99.90
11908;DHT22;6014;47.690;9.130;2023-02-01T01:41:25;4.80;99.90
11908;DHT22;6014;47.690;9.130;2023-02-01T01:43:55;4.70;99.90
11908;DHT22;6014;47.690;9.130;2023-02-01T01:46:26;4.70;99.90
11908;DHT22;6014;47.690;9.130;2023-02-01T01:49:00;4.70;99.90
11908;DHT22;6014;47.690;9.130;2023-02-01T01:51:30;4.70;99.90
11908;DHT22;6014;47.690;9.130;2023-02-01T01:54:02;4.70;99.90
11908;DHT22;6014;47.690;9.130;2023-02-01T01:56:32;4.70;99.90
11908;DHT22;6014;47.690;9.130;2023-02-01T01:59:04;4.70;99.90
11908;DHT22;6014;47.690;9.130;2023-02-01T02:01:33;4.60;99.90
11908;DHT22;6014;47.690;9.130;2023-02-01T02:04:03;4.60;99.90
11908;DHT22;6014;47.690;9.130;2023-02-01T02:06:37;4.60;99.90
11908;DHT22;6014;47.690;9.130;2023-02-01T02:09:07;4.70;99.90
11908;DHT22;6014;47.690;9.130;2023-02-01T02:11:35;4.70;99.90
11908;DHT22;6014;47.690;9.130;2023-02-01T02:14:04;4.50;99.90
11908;DHT22;6014;47.690;9.130;2023-02-01T02:16:44;4.40;99.90
11908;DHT22;6014;47.690;9.130;2023-02-01T02:22:43;4.40;99.90
11908;DHT22;6014;47.690;9.130;2023-02-01T02:25:53;4.40;99.90
11908;DHT22;6014;47.690;9.130;2023-02-01T02:29:07;4.40;99.90
11908;DHT22;6014;47.690;9.130;2023-02-01T02:31:54;4.50;99.90
11908;DHT22;6014;47.690;9.130;2023-02-01T02:34:29;4.40;99.90
11908;DHT22;6014;47.690;9.130;2023-02-01T02:37:04;4.50;99.90
11908;DHT22;6014;47.690;9.130;2023-02-01T02:39:42;4.50;99.90
11908;DHT22;6014;47.690;9.130;2023-02-01T02:42:17;4.40;99.90
11908;DHT22;6014;47.690;9.130;2023-02-01T02:45:08;4.50;99.90
11908;DHT22;6014;47.690;9.130;2023-02-01T02:48:02;4.40;99.90
11908;DHT22;6014;47.690;9.130;2023-02-01T02:50:36;4.40;99.90
11908;DHT22;6014;47.690;9.130;2023-02-01T02:53:27;4.40;99.90
11908;DHT22;6014;47.690;9.130;2023-02-01T02:56:16;4.40;99.90
11908;DHT22;6014;47.690;9.130;2023-02-01T02:59:04;4.30;99.90
11908;DHT22;6014;47.690;9.130;2023-02-01T03:01:51;4.30;99.90
11908;DHT22;6014;47.690;9.130;2023-02-01T03:04:37;4.10;99.90
11908;DHT22;6014;47.690;9.130;2023-02-01T03:07:15;4.00;99.90
11908;DHT22;6014;47.690;9.130;2023-02-01T03:10:06;4.00;99.90
11908;DHT22;6014;47.690;9.130;2023-02-01T03:12:37;4.00;99.90
11908;DHT22;6014;47.690;9.130;2023-02-01T03:15:32;4.10;99.90
11908;DHT22;6014;47.690;9.130;2023-02-01T03:18:06;4.10;99.90
11908;DHT22;6014;47.690;9.130;2023-02-01T03:20:49;4.10;99.90
11908;DHT22;6014;47.690;9.130;2023-02-01T03:23:23;4.00;99.90
11908;DHT22;6014;47.690;9.130;2023-02-01T03:25:53;4.00;99.90
11908;DHT22;6014;47.690;9.130;2023-02-01T03:28:23;4.00;99.90
11908;DHT22;6014;47.690;9.130;2023-02-01T03:30:54;4.00;99.90
11908;DHT22;6014;47.690;9.130;2023-02-01T03:33:25;3.90;99.90
11908;DHT22;6014;47.690;9.130;2023-02-01T03:36:05;3.90;99.90
11908;DHT22;6014;47.690;9.130;2023-02-01T03:38:41;3.90;99.90
11908;DHT22;6014;47.690;9.130;2023-02-01T03:41:15;3.80;99.90
11908;DHT22;6014;47.690;9.130;2023-02-01T03:43:51;3.70;99.90
11908;DHT22;6014;47.690;9.130;2023-02-01T03:46:27;3.80;99.90
11908;DHT22;6014;47.690;9.130;2023-02-01T03:49:02;3.80;99.90
11908;DHT22;6014;47.690;9.130;2023-02-01T03:51:31;3.80;99.90
11908;DHT22;6014;47.690;9.130;2023-02-01T03:54:02;3.80;99.90
11908;DHT22;6014;47.690;9.130;2023-02-01T03:56:31;3.80;99.90
11908;DHT22;6014;47.690;9.130;2023-02-01T03:59:03;3.90;99.90
11908;DHT22;6014;47.690;9.130;2023-02-01T04:01:31;3.90;99.90
11908;DHT22;6014;47.690;9.130;2023-02-01T04:03:59;3.90;99.90
11908;DHT22;6014;47.690;9.130;2023-02-01T04:06:27;3.90;99.90
11908;DHT22;6014;47.690;9.130;2023-02-01T04:08:55;3.90;99.90
11908;DHT22;6014;47.690;9.130;2023-02-01T04:11:31;3.90;99.90
11908;DHT22;6014;47.690;9.130;2023-02-01T04:13:59;3.90;99.90
11908;DHT22;6014;47.690;9.130;2023-02-01T04:16:31;3.90;99.90
11908;DHT22;6014;47.690;9.130;2023-02-01T04:19:00;3.90;99.90
11908;DHT22;6014;47.690;9.130;2023-02-01T04:21:29;3.90;99.90
11908;DHT22;6014;47.690;9.130;2023-02-01T04:23:57;3.90;99.90
11908;DHT22;6014;47.690;9.130;2023-02-01T04:26:25;3.90;99.90
11908;DHT22;6014;47.690;9.130;2023-02-01T04:28:54;4.00;99.90
11908;DHT22;6014;47.690;9.130;2023-02-01T04:31:22;3.90;99.90
11908;DHT22;6014;47.690;9.130;2023-02-01T04:33:53;3.90;99.90
11908;DHT22;6014;47.690;9.130;2023-02-01T04:36:22;3.90;99.90
11908;DHT22;6014;47.690;9.130;2023-02-01T04:38:50;3.90;99.90
11908;DHT22;6014;47.690;9.130;2023-02-01T04:41:18;3.80;99.90
11908;DHT22;6014;47.690;9.130;2023-02-01T04:43:47;3.70;99.90
11908;DHT22;6014;47.690;9.130;2023-02-01T04:46:16;3.80;99.90
11908;DHT22;6014;47.690;9.130;2023-02-01T04:48:45;3.90;99.90
11908;DHT22;6014;47.690;9.130;2023-02-01T04:51:13;4.00;99.90
11908;DHT22;6014;47.690;9.130;2023-02-01T04:53:41;4.00;99.90
11908;DHT22;6014;47.690;9.130;2023-02-01T04:56:09;4.00;99.90
11908;DHT22;6014;47.690;9.130;2023-02-01T04:58:37;3.90;99.90
11908;DHT22;6014;47.690;9.130;2023-02-01T05:01:06;3.90;99.90
11908;DHT22;6014;47.690;9.130;2023-02-01T05:03:36;3.90;99.90
11908;DHT22;6014;47.690;9.130;2023-02-01T05:06:04;3.90;99.90
11908;DHT22;6014;47.690;9.130;2023-02-01T05:08:33;3.90;99.90
11908;DHT22;6014;47.690;9.130;2023-02-01T05:11:04;3.90;99.90
11908;DHT22;6014;47.690;9.130;2023-02-01T05:13:32;3.90;99.90
11908;DHT22;6014;47.690;9.130;2023-02-01T05:16:14;3.80;99.90
11908;DHT22;6014;47.690;9.130;2023-02-01T05:18:44;3.70;99.90
11908;DHT22;6014;47.690;9.130;2023-02-01T05:21:12;3.80;99.90
11908;DHT22;6014;47.690;9.130;2023-02-01T05:23:42;3.70;99.90
11908;DHT22;6014;47.690;9.130;2023-02-01T05:26:27;3.80;99.90
11908;DHT22;6014;47.690;9.130;2023-02-01T05:28:56;3.70;99.90
11908;DHT22;6014;47.690;9.130;2023-02-01T05:31:24;3.60;99.90
11908;DHT22;6014;47.690;9.130;2023-02-01T05:33:53;3.60;99.90
11908;DHT22;6014;47.690;9.130;2023-02-01T05:36:22;3.70;99.90
11908;DHT22;6014;47.690;9.130;2023-02-01T05:38:50;3.80;99.90
11908;DHT22;6014;47.690;9.130;2023-02-01T05:41:18;3.70;99.90
11908;DHT22;6014;47.690;9.130;2023-02-01T05:43:46;3.70;99.90
11908;DHT22;6014;47.690;9.130;2023-02-01T05:46:14;3.80;99.90
11908;DHT22;6014;47.690;9.130;2023-02-01T05:48:42;3.60;99.90
11908;DHT22;6014;47.690;9.130;2023-02-01T05:51:12;3.70;99.90
11908;DHT22;6014;47.690;9.130;2023-02-01T05:53:40;3.60;99.90
11908;DHT22;6014;47.690;9.130;2023-02-01T05:56:08;3.50;99.90
11908;DHT22;6014;47.690;9.130;2023-02-01T05:58:36;3.60;99.90
11908;DHT22;6014;47.690;9.130;2023-02-01T06:01:04;3.60;99.90
11908;DHT22;6014;47.690;9.130;2023-02-01T06:03:33;3.60;99.90
11908;DHT22;6014;47.690;9.130;2023-02-01T06:06:02;3.60;99.90
11908;DHT22;6014;47.690;9.130;2023-02-01T06:08:32;3.60;99.90
11908;DHT22;6014;47.690;9.130;2023-02-01T06:11:00;3.60;99.90
11908;DHT22;6014;47.690;9.130;2023-02-01T06:13:35;3.70;99.90
11908;DHT22;6014;47.690;9.130;2023-02-01T06:16:05;3.70;99.90
11908;DHT22;6014;47.690;9.130;2023-02-01T06:18:37;3.60;99.90
11908;DHT22;6014;47.690;9.130;2023-02-01T06:21:05;3.60;99.90
11908;DHT22;6014;47.690;9.130;2023-02-01T06:23:35;3.70;99.90
11908;DHT22;6014;47.690;9.130;2023-02-01T06:26:05;3.80;99.90
11908;DHT22;6014;47.690;9.130;2023-02-01T06:28:34;3.70;99.90
11908;DHT22;6014;47.690;9.130;2023-02-01T06:31:03;3.80;99.90
11908;DHT22;6014;47.690;9.130;2023-02-01T06:33:33;3.70;99.90
11908;DHT22;6014;47.690;9.130;2023-02-01T06:36:03;3.70;99.90
11908;DHT22;6014;47.690;9.130;2023-02-01T06:38:34;3.70;99.90
11908;DHT22;6014;47.690;9.130;2023-02-01T06:41:03;3.70;99.90
11908;DHT22;6014;47.690;9.130;2023-02-01T06:43:32;3.80;99.90
11908;DHT22;6014;47.690;9.130;2023-02-01T06:46:14;3.90;99.90
11908;DHT22;6014;47.690;9.130;2023-02-01T06:48:44;3.80;99.90
11908;DHT22;6014;47.690;9.130;2023-02-01T06:51:21;3.80;99.90
11908;DHT22;6014;47.690;9.130;2023-02-01T06:53:51;3.80;99.90
11908;DHT22;6014;47.690;9.130;2023-02-01T06:56:19;3.80;99.90
11908;DHT22;6014;47.690;9.130;2023-02-01T06:58:54;3.80;99.90
11908;DHT22;6014;47.690;9.130;2023-02-01T07:01:22;3.80;99.90
11908;DHT22;6014;47.690;9.130;2023-02-01T07:03:50;3.80;99.90
11908;DHT22;6014;47.690;9.130;2023-02-01T07:06:19;3.80;99.90
11908;DHT22;6014;47.690;9.130;2023-02-01T07:08:47;3.80;99.90
11908;DHT22;6014;47.690;9.130;2023-02-01T07:11:18;3.80;99.90
11908;DHT22;6014;47.690;9.130;2023-02-01T07:13:46;3.70;99.90
11908;DHT22;6014;47.690;9.130;2023-02-01T07:16:16;3.60;99.90
11908;DHT22;6014;47.690;9.130;2023-02-01T07:18:45;3.60;99.90
11908;DHT22;6014;47.690;9.130;2023-02-01T07:21:13;3.70;99.90
11908;DHT22;6014;47.690;9.130;2023-02-01T07:23:41;3.60;99.90
11908;DHT22;6014;47.690;9.130;2023-02-01T07:26:11;3.60;99.90
11908;DHT22;6014;47.690;9.130;2023-02-01T07:28:41;3.60;99.90
11908;DHT22;6014;47.690;9.130;2023-02-01T07:31:10;3.60;99.90
11908;DHT22;6014;47.690;9.130;2023-02-01T07:33:40;3.60;99.90
11908;DHT22;6014;47.690;9.130;2023-02-01T07:36:12;3.70;99.90
11908;DHT22;6014;47.690;9.130;2023-02-01T07:38:40;3.60;99.90
11908;DHT22;6014;47.690;9.130;2023-02-01T07:41:09;3.60;99.90
11908;DHT22;6014;47.690;9.130;2023-02-01T07:43:37;3.70;99.90
11908;DHT22;6014;47.690;9.130;2023-02-01T07:46:07;3.60;99.90
11908;DHT22;6014;47.690;9.130;2023-02-01T07:48:35;3.60;99.90
11908;DHT22;6014;47.690;9.130;2023-02-01T07:51:04;3.60;99.90
11908;DHT22;6014;47.690;9.130;2023-02-01T07:53:34;3.60;99.90
11908;DHT22;6014;47.690;9.130;2023-02-01T07:56:03;3.60;99.90
11908;DHT22;6014;47.690;9.130;2023-02-01T07:58:31;3.60;99.90
11908;DHT22;6014;47.690;9.130;2023-02-01T08:00:59;3.60;99.90
11908;DHT22;6014;47.690;9.130;2023-02-01T08:03:47;3.60;99.90
11908;DHT22;6014;47.690;9.130;2023-02-01T08:06:15;3.70;99.90
11908;DHT22;6014;47.690;9.130;2023-02-01T08:08:43;3.70;99.90
11908;DHT22;6014;47.690;9.130;2023-02-01T08:11:14;3.80;99.90
11908;DHT22;6014;47.690;9.130;2023-02-01T08:13:42;3.80;99.90
11908;DHT22;6014;47.690;9.130;2023-02-01T08:16:12;3.70;99.90
11908;DHT22;6014;47.690;9.130;2023-02-01T08:18:41;4.10;99.90
11908;DHT22;6014;47.690;9.130;2023-02-01T08:21:12;3.90;99.90
11908;DHT22;6014;47.690;9.130;2023-02-01T08:23:41;3.80;99.90
11908;DHT22;6014;47.690;9.130;2023-02-01T08:26:11;3.70;99.90
11908;DHT22;6014;47.690;9.130;2023-02-01T08:28:42;3.80;99.90
11908;DHT22;6014;47.690;9.130;2023-02-01T08:31:12;3.80;99.90
11908;DHT22;6014;47.690;9.130;2023-02-01T08:33:42;3.80;99.90
11908;DHT22;6014;47.690;9.130;2023-02-01T08:36:12;3.80;99.90
11908;DHT22;6014;47.690;9.130;2023-02-01T08:38:40;3.90;99.90
11908;DHT22;6014;47.690;9.130;2023-02-01T08:41:09;3.90;99.90
11908;DHT22;6014;47.690;9.130;2023-02-01T08:43:38;3.90;99.90
11908;DHT22;6014;47.690;9.130;2023-02-01T08:46:07;4.00;99.90
11908;DHT22;6014;47.690;9.130;2023-02-01T08:48:36;3.90;99.90
11908;DHT22;6014;47.690;9.130;2023-02-01T08:51:07;4.00;99.90
11908;DHT22;6014;47.690;9.130;2023-02-01T08:53:37;4.10;99.90
11908;DHT22;6014;47.690;9.130;2023-02-01T08:56:07;3.90;99.90
11908;DHT22;6014;47.690;9.130;2023-02-01T08:58:35;4.10;99.90
11908;DHT22;6014;47.690;9.130;2023-02-01T09:01:04;4.10;99.90
11908;DHT22;6014;47.690;9.130;2023-02-01T09:03:33;4.10;99.90
11908;DHT22;6014;47.690;9.130;2023-02-01T09:06:02;4.10;99.90
11908;DHT22;6014;47.690;9.130;2023-02-01T09:08:30;4.10;99.90
11908;DHT22;6014;47.690;9.130;2023-02-01T09:11:00;4.10;99.90
11908;DHT22;6014;47.690;9.130;2023-02-01T09:13:29;4.10;99.90
11908;DHT22;6014;47.690;9.130;2023-02-01T09:15:57;4.10;99.90
11908;DHT22;6014;47.690;9.130;2023-02-01T09:18:26;4.20;99.90
11908;DHT22;6014;47.690;9.130;2023-02-01T09:20:54;4.20;99.90
11908;DHT22;6014;47.690;9.130;2023-02-01T09:23:22;4.30;99.90
11908;DHT22;6014;47.690;9.130;2023-02-01T09:25:50;4.30;99.90
11908;DHT22;6014;47.690;9.130;2023-02-01T09:28:20;4.20;99.90
11908;DHT22;6014;47.690;9.130;2023-02-01T09:30:57;4.30;99.90
11908;DHT22;6014;47.690;9.130;2023-02-01T09:33:26;4.20;99.90
11908;DHT22;6014;47.690;9.130;2023-02-01T09:35:58;4.30;99.90
11908;DHT22;6014;47.690;9.130;2023-02-01T09:38:27;4.30;99.90
11908;DHT22;6014;47.690;9.130;2023-02-01T09:40:56;4.40;99.90
11908;DHT22;6014;47.690;9.130;2023-02-01T09:43:34;4.40;99.90
11908;DHT22;6014;47.690;9.130;2023-02-01T09:46:22;4.40;99.90
11908;DHT22;6014;47.690;9.130;2023-02-01T09:48:54;4.50;99.90
11908;DHT22;6014;47.690;9.130;2023-02-01T09:51:25;4.50;99.90
11908;DHT22;6014;47.690;9.130;2023-02-01T09:53:59;4.50;99.90
11908;DHT22;6014;47.690;9.130;2023-02-01T09:56:34;4.60;99.90
11908;DHT22;6014;47.690;9.130;2023-02-01T09:59:10;4.70;99.90
11908;DHT22;6014;47.690;9.130;2023-02-01T10:01:45;4.60;99.90
11908;DHT22;6014;47.690;9.130;2023-02-01T10:04:14;4.70;99.90
11908;DHT22;6014;47.690;9.130;2023-02-01T10:06:52;4.70;99.90
11908;DHT22;6014;47.690;9.130;2023-02-01T10:09:33;4.80;99.90
11908;DHT22;6014;47.690;9.130;2023-02-01T10:12:37;4.90;99.90
11908;DHT22;6014;47.690;9.130;2023-02-01T10:15:24;4.90;99.90
11908;DHT22;6014;47.690;9.130;2023-02-01T10:18:04;5.50;99.90
11908;DHT22;6014;47.690;9.130;2023-02-01T10:20:44;5.00;99.90
11908;DHT22;6014;47.690;9.130;2023-02-01T10:26:18;5.20;99.90
11908;DHT22;6014;47.690;9.130;2023-02-01T10:28:49;5.20;99.90
11908;DHT22;6014;47.690;9.130;2023-02-01T10:31:21;5.40;99.90
11908;DHT22;6014;47.690;9.130;2023-02-01T10:33:55;5.30;99.90
11908;DHT22;6014;47.690;9.130;2023-02-01T10:36:29;5.50;99.90
11908;DHT22;6014;47.690;9.130;2023-02-01T10:38:58;5.60;99.90
11908;DHT22;6014;47.690;9.130;2023-02-01T10:41:31;5.50;99.90
11908;DHT22;6014;47.690;9.130;2023-02-01T10:44:03;5.50;99.90
11908;DHT22;6014;47.690;9.130;2023-02-01T10:46:34;5.50;99.90
11908;DHT22;6014;47.690;9.130;2023-02-01T10:49:04;5.70;99.90
11908;DHT22;6014;47.690;9.130;2023-02-01T10:51:42;5.80;99.90
11908;DHT22;6014;47.690;9.130;2023-02-01T10:54:16;6.30;99.90
11908;DHT22;6014;47.690;9.130;2023-02-01T10:56:44;6.30;99.90
11908;DHT22;6014;47.690;9.130;2023-02-01T10:59:16;6.70;99.90
11908;DHT22;6014;47.690;9.130;2023-02-01T11:01:49;7.00;99.90
11908;DHT22;6014;47.690;9.130;2023-02-01T11:04:18;7.60;99.90
11908;DHT22;6014;47.690;9.130;2023-02-01T11:06:51;7.30;99.90
11908;DHT22;6014;47.690;9.130;2023-02-01T11:09:21;7.40;99.90
11908;DHT22;6014;47.690;9.130;2023-02-01T11:11:56;7.30;99.90
11908;DHT22;6014;47.690;9.130;2023-02-01T11:14:34;7.40;99.90
11908;DHT22;6014;47.690;9.130;2023-02-01T11:17:27;7.60;99.90
11908;DHT22;6014;47.690;9.130;2023-02-01T11:19:58;7.30;99.90
11908;DHT22;6014;47.690;9.130;2023-02-01T11:22:27;7.70;99.90
11908;DHT22;6014;47.690;9.130;2023-02-01T11:24:56;7.90;99.90
11908;DHT22;6014;47.690;9.130;2023-02-01T11:27:25;8.00;99.90
11908;DHT22;6014;47.690;9.130;2023-02-01T11:29:57;7.90;99.90
11908;DHT22;6014;47.690;9.130;2023-02-01T11:32:28;8.20;99.90
11908;DHT22;6014;47.690;9.130;2023-02-01T11:35:01;8.20;99.90
11908;DHT22;6014;47.690;9.130;2023-02-01T11:37:31;8.00;99.90
11908;DHT22;6014;47.690;9.130;2023-02-01T11:40:03;8.30;99.90
11908;DHT22;6014;47.690;9.130;2023-02-01T11:42:31;8.40;99.90
11908;DHT22;6014;47.690;9.130;2023-02-01T11:45:25;8.40;99.90
11908;DHT22;6014;47.690;9.130;2023-02-01T11:47:56;8.00;99.90
11908;DHT22;6014;47.690;9.130;2023-02-01T11:50:30;7.90;99.90
11908;DHT22;6014;47.690;9.130;2023-02-01T11:53:16;7.70;99.90
11908;DHT22;6014;47.690;9.130;2023-02-01T11:55:59;7.50;99.90
11908;DHT22;6014;47.690;9.130;2023-02-01T12:01:35;7.40;99.90
11908;DHT22;6014;47.690;9.130;2023-02-01T12:04:42;7.20;99.90
11908;DHT22;6014;47.690;9.130;2023-02-01T12:07:17;7.10;99.90
11908;DHT22;6014;47.690;9.130;2023-02-01T12:09:56;6.90;99.90
11908;DHT22;6014;47.690;9.130;2023-02-01T12:12:36;6.90;99.90
11908;DHT22;6014;47.690;9.130;2023-02-01T12:15:22;6.80;99.90
11908;DHT22;6014;47.690;9.130;2023-02-01T12:21:12;6.70;99.90
11908;DHT22;6014;47.690;9.130;2023-02-01T12:24:13;6.70;99.90
11908;DHT22;6014;47.690;9.130;2023-02-01T12:27:08;6.70;99.90
11908;DHT22;6014;47.690;9.130;2023-02-01T12:30:02;6.60;99.90
11908;DHT22;6014;47.690;9.130;2023-02-01T12:32:59;6.60;99.90
11908;DHT22;6014;47.690;9.130;2023-02-01T12:35:56;6.60;99.90
11908;DHT22;6014;47.690;9.130;2023-02-01T12:38:39;6.50;99.90
11908;DHT22;6014;47.690;9.130;2023-02-01T12:41:20;6.50;99.90
11908;DHT22;6014;47.690;9.130;2023-02-01T12:43:54;6.50;99.90
11908;DHT22;6014;47.690;9.130;2023-02-01T12:46:29;6.60;99.90
11908;DHT22;6014;47.690;9.130;2023-02-01T12:49:01;6.60;99.90
11908;DHT22;6014;47.690;9.130;2023-02-01T12:51:35;6.60;99.90
11908;DHT22;6014;47.690;9.130;2023-02-01T12:54:11;6.50;99.90
11908;DHT22;6014;47.690;9.130;2023-02-01T12:56:43;6.50;99.90
11908;DHT22;6014;47.690;9.130;2023-02-01T12:59:19;6.40;99.90
11908;DHT22;6014;47.690;9.130;2023-02-01T13:01:53;6.20;99.90
11908;DHT22;6014;47.690;9.130;2023-02-01T13:04:29;6.30;99.90
11908;DHT22;6014;47.690;9.130;2023-02-01T13:07:06;6.20;99.90
11908;DHT22;6014;47.690;9.130;2023-02-01T13:09:41;6.20;99.90
11908;DHT22;6014;47.690;9.130;2023-02-01T13:12:15;6.10;99.90
11908;DHT22;6014;47.690;9.130;2023-02-01T13:14:49;6.10;99.90
11908;DHT22;6014;47.690;9.130;2023-02-01T13:17:22;6.00;99.90
11908;DHT22;6014;47.690;9.130;2023-02-01T13:19:57;6.10;99.90
11908;DHT22;6014;47.690;9.130;2023-02-01T13:22:30;6.10;99.90
11908;DHT22;6014;47.690;9.130;2023-02-01T13:25:03;6.10;99.90
11908;DHT22;6014;47.690;9.130;2023-02-01T13:27:32;6.10;99.90
11908;DHT22;6014;47.690;9.130;2023-02-01T13:30:03;6.30;99.90
11908;DHT22;6014;47.690;9.130;2023-02-01T13:32:55;6.10;99.90
11908;DHT22;6014;47.690;9.130;2023-02-01T13:35:58;6.10;99.90
11908;DHT22;6014;47.690;9.130;2023-02-01T13:39:02;6.30;99.90
11908;DHT22;6014;47.690;9.130;2023-02-01T13:41:39;6.30;99.90
11908;DHT22;6014;47.690;9.130;2023-02-01T13:44:14;6.40;99.90
11908;DHT22;6014;47.690;9.130;2023-02-01T13:46:52;6.40;99.90
11908;DHT22;6014;47.690;9.130;2023-02-01T13:49:24;6.30;99.90
11908;DHT22;6014;47.690;9.130;2023-02-01T13:51:55;6.50;99.90
11908;DHT22;6014;47.690;9.130;2023-02-01T13:54:29;6.60;99.90
11908;DHT22;6014;47.690;9.130;2023-02-01T13:57:00;6.60;99.90
11908;DHT22;6014;47.690;9.130;2023-02-01T13:59:46;6.40;99.90
11908;DHT22;6014;47.690;9.130;2023-02-01T14:02:59;6.30;99.90
11908;DHT22;6014;47.690;9.130;2023-02-01T14:06:03;6.20;99.90
11908;DHT22;6014;47.690;9.130;2023-02-01T14:08:41;6.10;99.90
11908;DHT22;6014;47.690;9.130;2023-02-01T14:11:33;6.10;99.90
11908;DHT22;6014;47.690;9.130;2023-02-01T14:17:35;6.10;99.90
11908;DHT22;6014;47.690;9.130;2023-02-01T14:23:29;6.10;99.90
11908;DHT22;6014;47.690;9.130;2023-02-01T14:26:14;6.10;99.90
11908;DHT22;6014;47.690;9.130;2023-02-01T14:28:46;6.10;99.90
11908;DHT22;6014;47.690;9.130;2023-02-01T14:31:37;6.20;99.90
11908;DHT22;6014;47.690;9.130;2023-02-01T14:34:24;6.10;99.90
11908;DHT22;6014;47.690;9.130;2023-02-01T14:36:57;6.10;99.90
11908;DHT22;6014;47.690;9.130;2023-02-01T14:39:33;6.20;99.90
11908;DHT22;6014;47.690;9.130;2023-02-01T14:42:14;6.20;99.90
11908;DHT22;6014;47.690;9.130;2023-02-01T14:44:42;6.10;99.90
11908;DHT22;6014;47.690;9.130;2023-02-01T14:47:30;6.20;99.90
11908;DHT22;6014;47.690;9.130;2023-02-01T14:53:17;6.10;99.90
11908;DHT22;6014;47.690;9.130;2023-02-01T14:55:49;6.10;99.90
11908;DHT22;6014;47.690;9.130;2023-02-01T14:58:30;6.10;99.90
11908;DHT22;6014;47.690;9.130;2023-02-01T15:01:02;6.10;99.90
11908;DHT22;6014;47.690;9.130;2023-02-01T15:03:46;6.20;99.90
11908;DHT22;6014;47.690;9.130;2023-02-01T15:06:31;6.10;99.90
11908;DHT22;6014;47.690;9.130;2023-02-01T15:09:02;6.10;99.90
11908;DHT22;6014;47.690;9.130;2023-02-01T15:11:31;6.10;99.90
11908;DHT22;6014;47.690;9.130;2023-02-01T15:13:59;6.10;99.90
11908;DHT22;6014;47.690;9.130;2023-02-01T15:16:27;6.10;99.90
11908;DHT22;6014;47.690;9.130;2023-02-01T15:19:09;6.00;99.90
11908;DHT22;6014;47.690;9.130;2023-02-01T15:21:48;6.00;99.90
11908;DHT22;6014;47.690;9.130;2023-02-01T15:24:20;6.10;99.90
11908;DHT22;6014;47.690;9.130;2023-02-01T15:26:51;6.10;99.90
11908;DHT22;6014;47.690;9.130;2023-02-01T15:29:22;6.10;99.90
11908;DHT22;6014;47.690;9.130;2023-02-01T15:31:52;6.10;99.90
11908;DHT22;6014;47.690;9.130;2023-02-01T15:34:21;6.00;99.90
11908;DHT22;6014;47.690;9.130;2023-02-01T15:36:53;6.00;99.90
11908;DHT22;6014;47.690;9.130;2023-02-01T15:40:14;6.00;99.90
11908;DHT22;6014;47.690;9.130;2023-02-01T15:42:51;6.00;99.90
11908;DHT22;6014;47.690;9.130;2023-02-01T15:45:22;5.90;99.90
11908;DHT22;6014;47.690;9.130;2023-02-01T15:47:52;6.00;99.90
11908;DHT22;6014;47.690;9.130;2023-02-01T15:50:22;6.00;99.90
11908;DHT22;6014;47.690;9.130;2023-02-01T15:52:54;5.80;99.90
11908;DHT22;6014;47.690;9.130;2023-02-01T15:55:26;5.90;99.90
11908;DHT22;6014;47.690;9.130;2023-02-01T15:57:59;5.80;99.90
11908;DHT22;6014;47.690;9.130;2023-02-01T16:00:31;5.90;99.90
11908;DHT22;6014;47.690;9.130;2023-02-01T16:03:01;5.90;99.90
11908;DHT22;6014;47.690;9.130;2023-02-01T16:05:33;5.80;99.90
11908;DHT22;6014;47.690;9.130;2023-02-01T16:08:05;5.80;99.90
11908;DHT22;6014;47.690;9.130;2023-02-01T16:10:44;5.80;99.90
11908;DHT22;6014;47.690;9.130;2023-02-01T16:13:13;5.70;99.90
11908;DHT22;6014;47.690;9.130;2023-02-01T16:15:42;5.80;99.90
11908;DHT22;6014;47.690;9.130;2023-02-01T16:18:11;5.80;99.90
11908;DHT22;6014;47.690;9.130;2023-02-01T16:20:43;5.70;99.90
11908;DHT22;6014;47.690;9.130;2023-02-01T16:23:14;5.70;99.90
11908;DHT22;6014;47.690;9.130;2023-02-01T16:25:42;5.70;99.90
11908;DHT22;6014;47.690;9.130;2023-02-01T16:28:10;5.70;99.90
11908;DHT22;6014;47.690;9.130;2023-02-01T16:30:38;5.70;99.90
11908;DHT22;6014;47.690;9.130;2023-02-01T16:33:11;5.70;99.90
11908;DHT22;6014;47.690;9.130;2023-02-01T16:35:41;5.70;99.90
11908;DHT22;6014;47.690;9.130;2023-02-01T16:38:12;5.70;99.90
11908;DHT22;6014;47.690;9.130;2023-02-01T16:40:43;5.70;99.90
11908;DHT22;6014;47.690;9.130;2023-02-01T16:43:13;5.80;99.90
11908;DHT22;6014;47.690;9.130;2023-02-01T16:45:41;5.80;99.90
11908;DHT22;6014;47.690;9.130;2023-02-01T16:48:16;5.70;99.90
11908;DHT22;6014;47.690;9.130;2023-02-01T16:50:49;5.80;99.90
11908;DHT22;6014;47.690;9.130;2023-02-01T16:53:17;5.80;99.90
11908;DHT22;6014;47.690;9.130;2023-02-01T16:55:50;5.80;99.90
11908;DHT22;6014;47.690;9.130;2023-02-01T16:58:22;5.80;99.90
11908;DHT22;6014;47.690;9.130;2023-02-01T17:00:58;5.70;99.90
11908;DHT22;6014;47.690;9.130;2023-02-01T17:03:26;5.70;99.90
11908;DHT22;6014;47.690;9.130;2023-02-01T17:05:58;5.70;99.90